createdAt,value
2022-07-30T00:00:02.234Z,100092.28
2022-07-30T00:00:33.883Z,100098.56
2022-07-30T00:01:05.610Z,100095.84
2022-07-30T00:01:37.268Z,100094.22
2022-07-30T00:02:08.901Z,100088.75
2022-07-30T00:02:40.419Z,100096.94
2022-07-30T00:03:12.076Z,100094.22
2022-07-30T00:03:43.776Z,100094.22
2022-07-30T00:04:15.428Z,100091.47
2022-07-30T00:04:46.906Z,100094.22
2022-07-30T00:05:18.469Z,100088.75
2022-07-30T00:05:50.058Z,100089.56
2022-07-30T00:06:21.599Z,100088.75
2022-07-30T00:06:53.099Z,100095.03
2022-07-30T00:07:24.721Z,100089.56
2022-07-30T00:07:56.228Z,100092.28
2022-07-30T00:08:27.773Z,100095.03
2022-07-30T00:08:59.337Z,100089.56
2022-07-30T00:09:34.241Z,100086.00
2022-07-30T00:10:07.828Z,100089.56
2022-07-30T00:10:39.395Z,100088.75
2022-07-30T00:11:10.865Z,100082.47
2022-07-30T00:11:42.316Z,100078.59
2022-07-30T00:12:13.803Z,100083.28
2022-07-30T00:12:45.338Z,100084.91
2022-07-30T00:13:17.046Z,100084.09
2022-07-30T00:13:48.632Z,100082.47
2022-07-30T00:14:20.076Z,100077.00
2022-07-30T00:14:51.588Z,100084.09
2022-07-30T00:15:25.735Z,100081.34
2022-07-30T00:15:57.238Z,100082.47
2022-07-30T00:16:28.822Z,100080.53
2022-07-30T00:17:00.428Z,100084.09
2022-07-30T00:17:32.322Z,100073.13
2022-07-30T00:18:03.835Z,100075.06
2022-07-30T00:18:36.232Z,100077.00
2022-07-30T00:19:08.579Z,100083.28
2022-07-30T00:19:40.242Z,100080.53
2022-07-30T00:20:11.862Z,100077.81
2022-07-30T00:20:45.485Z,100078.59
2022-07-30T00:21:34.597Z,100083.28
2022-07-30T00:22:08.443Z,100075.06
2022-07-30T00:22:40.029Z,100081.34
2022-07-30T00:23:11.553Z,100080.53
2022-07-30T00:23:43.070Z,100077.81
2022-07-30T00:24:32.721Z,100072.31
2022-07-30T00:25:04.278Z,100078.59
2022-07-30T00:25:36.088Z,100074.25
2022-07-30T00:26:07.588Z,100072.31
2022-07-30T00:26:39.061Z,100081.34
2022-07-30T00:27:10.591Z,100076.19
2022-07-30T00:27:42.195Z,100063.31
2022-07-30T00:28:13.761Z,100069.59
2022-07-30T00:28:45.261Z,100074.25
2022-07-30T00:29:16.819Z,100067.66
2022-07-30T00:29:48.362Z,100067.97
2022-07-30T00:30:19.876Z,100075.88
2022-07-30T00:30:54.994Z,100069.59
2022-07-30T00:31:27.935Z,100078.59
2022-07-30T00:31:59.553Z,100074.25
2022-07-30T00:32:31.162Z,100071.50
2022-07-30T00:33:02.894Z,100066.84
2022-07-30T00:33:34.592Z,100075.06
2022-07-30T00:34:06.185Z,100073.13
2022-07-30T00:34:37.697Z,100068.78
2022-07-30T00:35:09.172Z,100066.84
2022-07-30T00:35:40.686Z,100064.13
2022-07-30T00:36:12.156Z,100066.03
2022-07-30T00:36:43.637Z,100066.84
2022-07-30T00:37:15.193Z,100074.25
2022-07-30T00:37:46.624Z,100071.50
2022-07-30T00:38:18.125Z,100073.13
2022-07-30T00:38:49.702Z,100072.31
2022-07-30T00:39:21.153Z,100066.84
2022-07-30T00:39:52.566Z,100068.78
2022-07-30T00:40:24.035Z,100066.03
2022-07-30T00:40:55.491Z,100069.59
2022-07-30T00:41:27.034Z,100069.59
2022-07-30T00:41:58.481Z,100070.41
2022-07-30T00:42:29.982Z,100066.84
2022-07-30T00:43:01.418Z,100071.50
2022-07-30T00:43:32.984Z,100068.78
2022-07-30T00:44:04.523Z,100068.78
2022-07-30T00:44:36.052Z,100066.03
2022-07-30T00:45:12.512Z,100067.66
2022-07-30T00:45:44.033Z,100070.41
2022-07-30T00:46:15.507Z,100067.66
2022-07-30T00:46:47.040Z,100067.66
2022-07-30T00:47:18.478Z,100064.13
2022-07-30T00:47:49.919Z,100066.03
2022-07-30T00:48:21.445Z,100066.03
2022-07-30T00:48:52.982Z,100066.84
2022-07-30T00:49:24.565Z,100068.78
2022-07-30T00:49:56.056Z,100068.78
2022-07-30T00:50:27.569Z,100066.03
2022-07-30T00:50:59.018Z,100069.59
2022-07-30T00:51:30.589Z,100068.78
2022-07-30T00:52:02.617Z,100064.94
2022-07-30T00:52:34.136Z,100066.03
2022-07-30T00:53:05.609Z,100063.31
2022-07-30T00:53:37.017Z,100061.38
2022-07-30T00:54:08.595Z,100067.66
2022-07-30T00:54:40.030Z,100064.13
2022-07-30T00:55:11.529Z,100059.75
2022-07-30T00:55:43.003Z,100055.09
2022-07-30T00:56:14.445Z,100060.56
2022-07-30T00:56:45.948Z,100057.03
2022-07-30T00:57:17.389Z,100061.38
2022-07-30T00:57:48.869Z,100052.38
2022-07-30T00:58:21.557Z,100055.09
2022-07-30T00:58:53.031Z,100056.72
2022-07-30T00:59:24.655Z,100052.38
2022-07-30T00:59:56.088Z,100062.19
2022-07-30T01:00:27.542Z,100057.84
2022-07-30T01:00:59.011Z,100061.38
2022-07-30T01:01:30.562Z,100058.94
2022-07-30T01:02:02.133Z,100055.91
2022-07-30T01:02:33.687Z,100057.84
2022-07-30T01:03:05.164Z,100054.00
2022-07-30T01:03:36.694Z,100058.66
2022-07-30T01:04:08.122Z,100061.38
2022-07-30T01:04:39.603Z,100060.56
2022-07-30T01:05:11.038Z,100060.56
2022-07-30T01:05:42.479Z,100063.31
2022-07-30T01:06:14.510Z,100057.03
2022-07-30T01:06:46.229Z,100065.22
2022-07-30T01:07:17.682Z,100066.84
2022-07-30T01:07:49.155Z,100064.13
2022-07-30T01:08:20.598Z,100068.78
2022-07-30T01:08:52.197Z,100057.84
2022-07-30T01:09:23.595Z,100057.84
2022-07-30T01:10:49.943Z,100062.50
2022-07-30T01:11:36.816Z,100066.03
2022-07-30T01:12:22.093Z,100059.75
2022-07-30T01:13:08.756Z,100062.50
2022-07-30T01:13:54.261Z,100068.78
2022-07-30T01:14:37.492Z,100063.31
2022-07-30T01:15:24.123Z,100066.84
2022-07-30T01:16:08.523Z,100070.69
2022-07-30T01:16:55.890Z,100066.84
2022-07-30T01:17:41.547Z,100070.41
2022-07-30T01:18:26.286Z,100062.19
2022-07-30T01:19:09.731Z,100066.84
2022-07-30T01:19:56.273Z,100064.94
2022-07-30T01:20:40.102Z,100072.31
2022-07-30T01:21:24.668Z,100065.75
2022-07-30T01:22:08.189Z,100064.94
2022-07-30T01:22:52.648Z,100061.38
2022-07-30T01:23:35.165Z,100066.84
2022-07-30T01:24:16.723Z,100064.94
2022-07-30T01:25:01.050Z,100063.00
2022-07-30T01:25:45.851Z,100068.47
2022-07-30T01:26:29.612Z,100062.19
2022-07-30T01:27:13.651Z,100057.53
2022-07-30T01:27:59.091Z,100062.19
2022-07-30T01:28:43.970Z,100063.81
2022-07-30T01:29:25.566Z,100063.00
2022-07-30T01:30:10.482Z,100070.09
2022-07-30T01:30:55.537Z,100059.47
2022-07-30T01:31:40.216Z,100067.38
2022-07-30T01:32:26.632Z,100058.34
2022-07-30T01:33:10.149Z,100063.81
2022-07-30T01:33:56.027Z,100057.53
2022-07-30T01:34:46.049Z,100058.34
2022-07-30T01:35:31.119Z,100063.00
2022-07-30T01:36:14.112Z,100063.81
2022-07-30T01:36:58.757Z,100061.09
2022-07-30T01:37:43.158Z,100063.81
2022-07-30T01:38:25.697Z,100060.28
2022-07-30T01:39:10.157Z,100061.91
2022-07-30T01:39:53.967Z,100056.44
2022-07-30T01:40:38.669Z,100063.81
2022-07-30T01:41:21.281Z,100058.34
2022-07-30T01:42:04.836Z,100064.63
2022-07-30T01:42:49.088Z,100059.16
2022-07-30T01:43:32.165Z,100070.09
2022-07-30T01:44:15.627Z,100063.00
2022-07-30T01:45:04.568Z,100062.19
2022-07-30T01:45:49.318Z,100059.97
2022-07-30T01:46:33.815Z,100057.53
2022-07-30T01:47:18.258Z,100058.34
2022-07-30T01:48:05.783Z,100058.34
2022-07-30T01:48:50.514Z,100060.28
2022-07-30T01:49:35.538Z,100066.56
2022-07-30T01:50:18.614Z,100061.91
2022-07-30T01:51:03.996Z,100062.19
2022-07-30T01:51:49.927Z,100062.72
2022-07-30T01:52:36.709Z,100062.19
2022-07-30T01:53:22.105Z,100056.72
2022-07-30T01:54:06.553Z,100058.34
2022-07-30T01:54:50.310Z,100057.53
2022-07-30T01:55:34.924Z,100065.75
2022-07-30T01:56:24.943Z,100065.75
2022-07-30T01:57:08.592Z,100062.19
2022-07-30T01:57:54.821Z,100061.09
2022-07-30T01:58:42.887Z,100060.28
2022-07-30T01:59:30.480Z,100066.56
2022-07-30T02:00:15.891Z,100070.41
2022-07-30T02:01:04.165Z,100063.00
2022-07-30T02:01:48.408Z,100063.81
2022-07-30T02:02:32.393Z,100060.28
2022-07-30T02:03:18.995Z,100069.28
2022-07-30T02:04:04.741Z,100067.38
2022-07-30T02:04:47.446Z,100072.03
2022-07-30T02:05:32.105Z,100073.13
2022-07-30T02:06:21.077Z,100064.94
2022-07-30T02:07:05.532Z,100066.56
2022-07-30T02:07:48.501Z,100069.28
2022-07-30T02:08:38.056Z,100068.47
2022-07-30T02:09:24.186Z,100064.13
2022-07-30T02:10:09.692Z,100066.84
2022-07-30T02:10:55.436Z,100066.84
2022-07-30T02:11:40.117Z,100065.75
2022-07-30T02:12:26.308Z,100067.66
2022-07-30T02:13:10.881Z,100061.38
2022-07-30T02:13:56.219Z,100067.66
2022-07-30T02:14:43.346Z,100068.47
2022-07-30T02:15:29.585Z,100071.50
2022-07-30T02:16:12.678Z,100060.56
2022-07-30T02:16:54.889Z,100066.03
2022-07-30T02:17:39.853Z,100074.25
2022-07-30T02:18:27.670Z,100068.78
2022-07-30T02:19:11.503Z,100066.03
2022-07-30T02:19:56.105Z,100071.50
2022-07-30T02:20:38.610Z,100070.41
2022-07-30T02:21:23.631Z,100066.84
2022-07-30T02:22:12.744Z,100078.59
2022-07-30T02:22:57.704Z,100077.00
2022-07-30T02:23:40.944Z,100077.00
2022-07-30T02:24:24.639Z,100075.88
2022-07-30T02:25:08.578Z,100077.81
2022-07-30T02:25:53.304Z,100080.53
2022-07-30T02:26:37.933Z,100075.88
2022-07-30T02:27:23.507Z,100071.50
2022-07-30T02:28:07.004Z,100075.06
2022-07-30T02:28:52.055Z,100072.31
2022-07-30T02:29:36.902Z,100072.31
2022-07-30T02:30:23.536Z,100077.00
2022-07-30T02:31:17.333Z,100075.06
2022-07-30T02:32:01.380Z,100074.25
2022-07-30T02:32:47.530Z,100078.59
2022-07-30T02:33:31.160Z,100075.06
2022-07-30T02:34:14.919Z,100077.81
2022-07-30T02:34:59.644Z,100080.53
2022-07-30T02:35:41.603Z,100077.81
2022-07-30T02:36:25.476Z,100068.78
2022-07-30T02:37:09.150Z,100079.72
2022-07-30T02:37:53.794Z,100074.25
2022-07-30T02:38:36.651Z,100068.78
2022-07-30T02:39:21.943Z,100073.13
2022-07-30T02:40:09.291Z,100071.50
2022-07-30T02:40:50.334Z,100074.25
2022-07-30T02:41:34.031Z,100077.00
2022-07-30T02:42:18.743Z,100079.72
2022-07-30T02:43:04.805Z,100074.25
2022-07-30T02:43:48.994Z,100077.81
2022-07-30T02:44:34.462Z,100075.88
2022-07-30T02:45:17.634Z,100079.72
2022-07-30T02:45:59.529Z,100074.75
2022-07-30T02:46:44.939Z,100079.72
2022-07-30T02:47:32.024Z,100082.47
2022-07-30T02:48:32.965Z,100078.59
2022-07-30T02:49:18.574Z,100084.09
2022-07-30T02:50:04.093Z,100079.72
2022-07-30T02:50:46.411Z,100079.72
2022-07-30T02:51:28.855Z,100079.72
2022-07-30T02:52:16.884Z,100082.47
2022-07-30T02:53:04.277Z,100077.00
2022-07-30T02:53:48.113Z,100077.00
2022-07-30T02:54:35.547Z,100079.72
2022-07-30T02:55:20.933Z,100080.53
2022-07-30T02:56:05.598Z,100077.81
2022-07-30T02:56:47.742Z,100081.66
2022-07-30T02:57:32.137Z,100079.72
2022-07-30T02:58:15.860Z,100080.53
2022-07-30T02:59:00.066Z,100077.81
2022-07-30T02:59:43.867Z,100078.09
2022-07-30T03:00:26.907Z,100081.66
2022-07-30T03:01:10.249Z,100077.00
2022-07-30T03:01:52.599Z,100083.28
2022-07-30T03:02:35.050Z,100077.81
2022-07-30T03:03:20.319Z,100079.72
2022-07-30T03:04:03.808Z,100084.38
2022-07-30T03:04:49.596Z,100077.00
2022-07-30T03:05:32.344Z,100078.91
2022-07-30T03:06:16.615Z,100079.72
2022-07-30T03:07:01.011Z,100077.81
2022-07-30T03:07:43.893Z,100082.47
2022-07-30T03:08:27.194Z,100085.19
2022-07-30T03:09:17.390Z,100083.28
2022-07-30T03:10:01.617Z,100077.28
2022-07-30T03:10:45.450Z,100076.19
2022-07-30T03:11:29.763Z,100088.75
2022-07-30T03:12:14.396Z,100085.19
2022-07-30T03:13:01.907Z,100081.94
2022-07-30T03:13:45.767Z,100086.31
2022-07-30T03:14:29.392Z,100081.66
2022-07-30T03:15:13.830Z,100087.13
2022-07-30T03:15:59.317Z,100087.13
2022-07-30T03:16:44.787Z,100083.56
2022-07-30T03:17:36.325Z,100086.31
2022-07-30T03:18:20.230Z,100096.13
2022-07-30T03:19:06.014Z,100088.75
2022-07-30T03:19:50.559Z,100086.31
2022-07-30T03:20:35.369Z,100091.47
2022-07-30T03:21:22.064Z,100080.84
2022-07-30T03:22:07.297Z,100087.13
2022-07-30T03:22:56.238Z,100086.31
2022-07-30T03:23:41.618Z,100085.50
2022-07-30T03:24:26.603Z,100089.03
2022-07-30T03:25:11.268Z,100082.75
2022-07-30T03:25:56.440Z,100083.56
2022-07-30T03:26:42.103Z,100078.09
2022-07-30T03:27:27.032Z,100083.56
2022-07-30T03:28:18.067Z,100086.31
2022-07-30T03:29:03.154Z,100084.69
2022-07-30T03:29:50.343Z,100091.78
2022-07-30T03:30:34.439Z,100084.69
2022-07-30T03:31:18.233Z,100084.69
2022-07-30T03:32:02.647Z,100081.13
2022-07-30T03:32:47.376Z,100089.03
2022-07-30T03:33:38.092Z,100089.34
2022-07-30T03:34:21.116Z,100084.69
2022-07-30T03:35:06.677Z,100085.50
2022-07-30T03:35:51.613Z,100090.16
2022-07-30T03:36:36.663Z,100087.41
2022-07-30T03:37:23.330Z,100089.34
2022-07-30T03:38:08.293Z,100082.25
2022-07-30T03:38:50.413Z,100090.16
2022-07-30T03:39:35.790Z,100081.94
2022-07-30T03:40:22.647Z,100085.50
2022-07-30T03:41:09.551Z,100081.13
2022-07-30T03:41:56.985Z,100091.25
2022-07-30T03:42:42.904Z,100085.78
2022-07-30T03:43:33.234Z,100087.41
2022-07-30T03:44:14.483Z,100086.59
2022-07-30T03:44:59.168Z,100083.88
2022-07-30T03:45:43.787Z,100092.09
2022-07-30T03:46:24.405Z,100089.34
2022-07-30T03:47:11.367Z,100083.88
2022-07-30T03:47:56.828Z,100083.06
2022-07-30T03:48:42.315Z,100085.78
2022-07-30T03:49:29.283Z,100083.88
2022-07-30T03:50:15.858Z,100084.69
2022-07-30T03:51:00.415Z,100083.06
2022-07-30T03:51:42.662Z,100083.06
2022-07-30T03:52:28.227Z,100089.34
2022-07-30T03:53:11.615Z,100088.53
2022-07-30T03:53:55.398Z,100080.03
2022-07-30T03:54:37.906Z,100085.78
2022-07-30T03:55:20.934Z,100086.59
2022-07-30T03:56:04.657Z,100085.78
2022-07-30T03:56:51.352Z,100080.31
2022-07-30T03:57:35.875Z,100083.06
2022-07-30T03:58:19.161Z,100085.78
2022-07-30T03:59:07.674Z,100079.50
2022-07-30T03:59:52.866Z,100087.41
2022-07-30T04:00:35.440Z,100089.34
2022-07-30T04:01:19.829Z,100079.50
2022-07-30T04:02:09.259Z,100086.59
2022-07-30T04:02:54.449Z,100088.53
2022-07-30T04:03:39.648Z,100086.59
2022-07-30T04:04:26.417Z,100088.53
2022-07-30T04:05:13.270Z,100089.66
2022-07-30T04:05:58.487Z,100092.38
2022-07-30T04:06:45.802Z,100094.00
2022-07-30T04:07:30.735Z,100094.00
2022-07-30T04:08:15.495Z,100090.47
2022-07-30T04:09:01.622Z,100088.53
2022-07-30T04:09:48.542Z,100094.00
2022-07-30T04:10:35.604Z,100093.19
2022-07-30T04:11:21.531Z,100092.38
2022-07-30T04:12:22.585Z,100095.94
2022-07-30T04:13:07.751Z,100098.66
2022-07-30T04:13:52.294Z,100095.13
2022-07-30T04:14:40.040Z,100104.94
2022-07-30T04:16:04.975Z,100095.13
2022-07-30T04:16:39.240Z,100100.59
2022-07-30T04:17:23.932Z,100102.22
2022-07-30T04:18:08.678Z,100106.06
2022-07-30T04:18:52.832Z,100108.78
2022-07-30T04:19:36.119Z,100108.78
2022-07-30T04:20:20.628Z,100108.78
2022-07-30T04:21:06.210Z,100109.59
2022-07-30T04:21:54.882Z,100111.53
2022-07-30T04:22:41.281Z,100117.81
2022-07-30T04:23:24.179Z,100114.25
2022-07-30T04:24:08.888Z,100117.00
2022-07-30T04:24:53.760Z,100110.72
2022-07-30T04:25:40.737Z,100113.16
2022-07-30T04:26:26.744Z,100115.88
2022-07-30T04:27:07.392Z,100114.25
2022-07-30T04:28:01.918Z,100113.44
2022-07-30T04:28:46.945Z,100118.13
2022-07-30T04:29:34.155Z,100125.22
2022-07-30T04:30:18.964Z,100125.50
2022-07-30T04:31:03.044Z,100117.00
2022-07-30T04:31:48.815Z,100118.13
2022-07-30T04:32:34.260Z,100127.94
2022-07-30T04:33:20.881Z,100129.06
2022-07-30T04:34:05.692Z,100135.34
2022-07-30T04:34:51.245Z,100130.97
2022-07-30T04:35:50.298Z,100131.78
2022-07-30T04:36:34.382Z,100133.72
2022-07-30T04:37:14.977Z,100131.78
2022-07-30T04:38:00.317Z,100125.22
2022-07-30T04:38:43.697Z,100140.00
2022-07-30T04:39:28.118Z,100133.72
2022-07-30T04:40:11.958Z,100138.06
2022-07-30T04:40:56.171Z,100140.00
2022-07-30T04:41:49.625Z,100139.19
2022-07-30T04:42:30.868Z,100138.38
2022-07-30T04:43:13.596Z,100136.44
2022-07-30T04:44:01.182Z,100146.59
2022-07-30T04:44:44.037Z,100139.19
2022-07-30T04:45:27.927Z,100135.63
2022-07-30T04:46:10.969Z,100143.84
2022-07-30T04:46:55.399Z,100141.09
2022-07-30T04:47:44.213Z,100139.19
2022-07-30T04:48:28.309Z,100149.31
2022-07-30T04:49:11.755Z,100145.47
2022-07-30T04:49:56.621Z,100148.22
2022-07-30T04:50:41.363Z,100153.97
2022-07-30T04:51:25.133Z,100153.69
2022-07-30T04:52:10.166Z,100144.66
2022-07-30T04:52:55.431Z,100153.16
2022-07-30T04:53:41.609Z,100156.41
2022-07-30T04:54:28.553Z,100154.78
2022-07-30T04:55:13.381Z,100152.06
2022-07-30T04:55:57.584Z,100155.59
2022-07-30T04:56:42.162Z,100150.13
2022-07-30T04:57:32.514Z,100156.41
2022-07-30T04:58:17.437Z,100150.44
2022-07-30T04:59:04.099Z,100155.59
2022-07-30T04:59:47.619Z,100151.25
2022-07-30T05:00:32.538Z,100156.72
2022-07-30T05:01:16.455Z,100160.25
2022-07-30T05:01:59.619Z,100155.91
2022-07-30T05:02:40.910Z,100154.78
2022-07-30T05:03:25.955Z,100158.63
2022-07-30T05:04:07.843Z,100161.38
2022-07-30T05:04:51.461Z,100162.19
2022-07-30T05:05:38.392Z,100157.81
2022-07-30T05:06:24.304Z,100164.91
2022-07-30T05:07:08.340Z,100160.25
2022-07-30T05:07:50.504Z,100162.19
2022-07-30T05:08:37.436Z,100158.63
2022-07-30T05:09:25.145Z,100164.91
2022-07-30T05:10:09.425Z,100164.91
2022-07-30T05:10:53.684Z,100165.72
2022-07-30T05:11:37.137Z,100165.72
2022-07-30T05:12:19.761Z,100165.72
2022-07-30T05:13:01.245Z,100168.47
2022-07-30T05:13:46.314Z,100164.91
2022-07-30T05:14:32.272Z,100164.63
2022-07-30T05:15:16.946Z,100168.47
2022-07-30T05:16:01.163Z,100164.09
2022-07-30T05:16:46.359Z,100168.47
2022-07-30T05:17:31.578Z,100164.91
2022-07-30T05:18:14.509Z,100171.19
2022-07-30T05:18:59.343Z,100167.94
2022-07-30T05:19:41.248Z,100173.94
2022-07-30T05:20:26.573Z,100173.13
2022-07-30T05:21:11.005Z,100174.75
2022-07-30T05:21:56.472Z,100180.53
2022-07-30T05:22:42.749Z,100175.06
2022-07-30T05:23:23.320Z,100173.13
2022-07-30T05:24:07.311Z,100178.59
2022-07-30T05:24:50.838Z,100178.59
2022-07-30T05:25:35.288Z,100177.78
2022-07-30T05:26:17.927Z,100180.53
2022-07-30T05:27:01.872Z,100177.78
2022-07-30T05:27:46.742Z,100182.16
2022-07-30T05:28:29.012Z,100183.25
2022-07-30T05:29:16.106Z,100188.44
2022-07-30T05:30:03.364Z,100187.63
2022-07-30T05:30:49.323Z,100179.41
2022-07-30T05:31:37.407Z,100181.34
2022-07-30T05:32:21.758Z,100181.34
2022-07-30T05:33:13.351Z,100183.25
2022-07-30T05:33:58.268Z,100181.34
2022-07-30T05:34:41.781Z,100180.53
2022-07-30T05:35:28.634Z,100180.53
2022-07-30T05:36:15.371Z,100185.19
2022-07-30T05:36:59.984Z,100184.06
2022-07-30T05:37:45.242Z,100189.53
2022-07-30T05:38:29.514Z,100189.53
2022-07-30T05:39:13.855Z,100185.19
2022-07-30T05:40:03.301Z,100186.00
2022-07-30T05:40:46.941Z,100193.09
2022-07-30T05:41:34.371Z,100187.63
2022-07-30T05:42:22.203Z,100195.00
2022-07-30T05:43:06.971Z,100186.00
2022-07-30T05:43:56.156Z,100188.72
2022-07-30T05:44:38.613Z,100186.00
2022-07-30T05:45:23.492Z,100187.63
2022-07-30T05:46:06.469Z,100188.72
2022-07-30T05:46:50.328Z,100190.66
2022-07-30T05:47:35.085Z,100188.72
2022-07-30T05:48:19.243Z,100190.66
2022-07-30T05:49:04.016Z,100187.63
2022-07-30T05:49:48.010Z,100189.53
2022-07-30T05:50:32.336Z,100195.00
2022-07-30T05:51:16.392Z,100188.72
2022-07-30T05:52:01.008Z,100192.28
2022-07-30T05:52:44.939Z,100183.25
2022-07-30T05:53:33.157Z,100179.72
2022-07-30T05:54:18.110Z,100186.81
2022-07-30T05:55:03.348Z,100177.78
2022-07-30T05:55:47.378Z,100189.53
2022-07-30T05:56:34.157Z,100186.00
2022-07-30T05:57:20.601Z,100186.00
2022-07-30T05:58:07.778Z,100188.72
2022-07-30T05:58:57.364Z,100183.25
2022-07-30T05:59:42.011Z,100190.34
2022-07-30T06:00:26.614Z,100190.34
2022-07-30T06:01:11.993Z,100186.00
2022-07-30T06:01:56.681Z,100187.63
2022-07-30T06:02:39.422Z,100182.16
2022-07-30T06:03:20.033Z,100180.53
2022-07-30T06:04:07.857Z,100178.59
2022-07-30T06:04:50.805Z,100177.78
2022-07-30T06:05:35.383Z,100179.41
2022-07-30T06:06:22.749Z,100176.69
2022-07-30T06:07:06.145Z,100176.69
2022-07-30T06:07:51.243Z,100176.97
2022-07-30T06:08:42.033Z,100176.69
2022-07-30T06:09:36.282Z,100182.16
2022-07-30T06:10:19.162Z,100175.84
2022-07-30T06:11:05.243Z,100181.03
2022-07-30T06:11:50.489Z,100176.69
2022-07-30T06:12:35.660Z,100185.69
2022-07-30T06:13:19.744Z,100184.88
2022-07-30T06:14:02.572Z,100176.69
2022-07-30T06:14:46.206Z,100187.63
2022-07-30T06:15:30.933Z,100179.41
2022-07-30T06:16:15.656Z,100190.34
2022-07-30T06:16:58.955Z,100175.06
2022-07-30T06:17:43.740Z,100182.97
2022-07-30T06:18:33.318Z,100184.88
2022-07-30T06:19:20.106Z,100184.88
2022-07-30T06:20:05.152Z,100185.69
2022-07-30T06:20:52.344Z,100187.63
2022-07-30T06:22:06.160Z,100186.81
2022-07-30T06:22:35.644Z,100187.63
2022-07-30T06:23:19.587Z,100179.41
2022-07-30T06:24:01.828Z,100184.06
2022-07-30T06:24:48.271Z,100184.06
2022-07-30T06:25:33.781Z,100184.88
2022-07-30T06:26:21.018Z,100184.88
2022-07-30T06:27:04.018Z,100188.44
2022-07-30T06:27:48.164Z,100187.63
2022-07-30T06:28:37.449Z,100186.81
2022-07-30T06:29:20.430Z,100182.16
2022-07-30T06:30:03.311Z,100182.16
2022-07-30T06:30:47.578Z,100181.34
2022-07-30T06:31:32.551Z,100184.06
2022-07-30T06:32:15.761Z,100184.88
2022-07-30T06:32:59.442Z,100182.16
2022-07-30T06:33:41.085Z,100189.53
2022-07-30T06:34:25.902Z,100188.44
2022-07-30T06:35:11.452Z,100193.09
2022-07-30T06:35:55.892Z,100186.00
2022-07-30T06:36:39.504Z,100191.16
2022-07-30T06:37:24.553Z,100193.09
2022-07-30T06:38:24.039Z,100186.81
2022-07-30T06:39:06.573Z,100191.16
2022-07-30T06:39:57.598Z,100188.44
2022-07-30T06:40:40.948Z,100195.81
2022-07-30T06:41:26.886Z,100189.53
2022-07-30T06:42:11.832Z,100195.81
2022-07-30T06:42:56.271Z,100196.63
2022-07-30T06:43:35.629Z,100198.56
2022-07-30T06:44:20.785Z,100190.34
2022-07-30T06:45:05.749Z,100197.44
2022-07-30T06:45:52.521Z,100196.63
2022-07-30T06:46:35.854Z,100193.91
2022-07-30T06:47:19.299Z,100193.91
2022-07-30T06:48:03.846Z,100202.91
2022-07-30T06:48:46.985Z,100196.63
2022-07-30T06:49:29.813Z,100195.81
2022-07-30T06:50:14.381Z,100193.09
2022-07-30T06:50:59.362Z,100199.38
2022-07-30T06:51:46.464Z,100193.09
2022-07-30T06:52:32.241Z,100195.81
2022-07-30T06:53:19.622Z,100200.19
2022-07-30T06:54:02.890Z,100199.38
2022-07-30T06:54:50.435Z,100204.03
2022-07-30T06:55:38.203Z,100198.56
2022-07-30T06:56:24.804Z,100190.34
2022-07-30T06:57:09.585Z,100200.19
2022-07-30T06:57:54.067Z,100196.63
2022-07-30T06:58:38.461Z,100195.81
2022-07-30T06:59:21.407Z,100195.81
2022-07-30T07:00:04.829Z,100199.38
2022-07-30T07:00:51.532Z,100198.56
2022-07-30T07:01:35.174Z,100205.66
2022-07-30T07:02:18.952Z,100202.09
2022-07-30T07:03:08.643Z,100202.91
2022-07-30T07:03:51.637Z,100200.19
2022-07-30T07:04:36.571Z,100201.81
2022-07-30T07:05:20.260Z,100205.66
2022-07-30T07:06:03.622Z,100206.47
2022-07-30T07:06:46.482Z,100205.66
2022-07-30T07:07:41.335Z,100205.66
2022-07-30T07:08:25.227Z,100211.13
2022-07-30T07:09:06.850Z,100211.13
2022-07-30T07:09:53.813Z,100205.66
2022-07-30T07:11:18.411Z,100200.19
2022-07-30T07:12:06.642Z,100209.50
2022-07-30T07:12:57.355Z,100208.41
2022-07-30T07:13:44.308Z,100213.88
2022-07-30T07:14:30.842Z,100204.84
2022-07-30T07:15:19.411Z,100206.75
2022-07-30T07:16:07.910Z,100211.13
2022-07-30T07:16:56.206Z,100201.28
2022-07-30T07:17:42.584Z,100204.84
2022-07-30T07:18:33.317Z,100206.75
2022-07-30T07:20:01.493Z,100204.03
2022-07-30T07:20:20.893Z,100209.50
2022-07-30T07:21:07.074Z,100206.75
2022-07-30T07:21:55.137Z,100205.13
2022-07-30T07:22:42.124Z,100207.88
2022-07-30T07:23:41.835Z,100208.69
2022-07-30T07:24:25.102Z,100208.69
2022-07-30T07:25:19.354Z,100204.03
2022-07-30T07:26:05.099Z,100203.22
2022-07-30T07:26:48.259Z,100205.97
2022-07-30T07:27:35.145Z,100202.41
2022-07-30T07:28:22.703Z,100203.22
2022-07-30T07:29:18.679Z,100205.97
2022-07-30T07:30:12.053Z,100208.69
2022-07-30T07:30:59.138Z,100209.50
2022-07-30T07:32:05.527Z,100204.03
2022-07-30T07:32:51.973Z,100204.03
2022-07-30T07:33:38.105Z,100208.69
2022-07-30T07:34:24.429Z,100201.28
2022-07-30T07:35:07.810Z,100200.47
2022-07-30T07:35:55.481Z,100205.13
2022-07-30T07:36:41.717Z,100205.97
2022-07-30T07:37:28.619Z,100206.75
2022-07-30T07:38:12.997Z,100208.69
2022-07-30T07:38:58.513Z,100203.22
2022-07-30T07:39:50.771Z,100203.22
2022-07-30T07:40:37.935Z,100204.84
2022-07-30T07:41:22.488Z,100202.41
2022-07-30T07:42:42.794Z,100204.03
2022-07-30T07:43:31.122Z,100209.50
2022-07-30T07:44:16.965Z,100209.78
2022-07-30T07:44:59.345Z,100206.75
2022-07-30T07:45:46.153Z,100201.28
2022-07-30T07:46:33.650Z,100206.75
2022-07-30T07:47:18.223Z,100209.50
2022-07-30T07:48:03.218Z,100208.69
2022-07-30T07:48:49.930Z,100208.69
2022-07-30T07:49:36.060Z,100208.69
2022-07-30T07:50:24.073Z,100202.41
2022-07-30T07:51:14.097Z,100210.63
2022-07-30T07:52:03.530Z,100216.09
2022-07-30T07:52:49.003Z,100207.88
2022-07-30T07:53:33.644Z,100204.03
2022-07-30T07:54:22.144Z,100211.44
2022-07-30T07:55:02.978Z,100209.50
2022-07-30T07:55:47.804Z,100210.31
2022-07-30T07:56:33.786Z,100214.97
2022-07-30T07:57:21.330Z,100204.03
2022-07-30T07:58:06.341Z,100214.16
2022-07-30T07:58:52.792Z,100215.78
2022-07-30T07:59:40.691Z,100214.97
2022-07-30T08:00:25.998Z,100217.72
2022-07-30T08:01:10.742Z,100214.16
2022-07-30T08:01:57.222Z,100212.25
2022-07-30T08:02:42.979Z,100214.97
2022-07-30T08:03:27.898Z,100222.06
2022-07-30T08:04:12.408Z,100215.78
2022-07-30T08:04:59.610Z,100215.78
2022-07-30T08:06:00.991Z,100214.16
2022-07-30T08:06:45.965Z,100217.72
2022-07-30T08:07:33.703Z,100209.50
2022-07-30T08:08:19.790Z,100217.72
2022-07-30T08:09:04.392Z,100215.78
2022-07-30T08:09:48.346Z,100218.53
2022-07-30T08:10:33.819Z,100224.00
2022-07-30T08:11:16.021Z,100215.78
2022-07-30T08:12:00.961Z,100215.78